createdAt,value
2018-08-03T00:00:48.311Z,64.7
2018-08-03T00:01:49.706Z,64.6
2018-08-03T00:02:51.102Z,65.3
2018-08-03T00:03:52.501Z,65.9
2018-08-03T00:04:53.922Z,65.4
2018-08-03T00:05:55.319Z,65.4
2018-08-03T00:06:56.711Z,65.8
2018-08-03T00:07:58.105Z,66.7
2018-08-03T00:08:59.501Z,65.5
2018-08-03T00:10:00.910Z,65.8
2018-08-03T00:11:02.310Z,66.2
2018-08-03T00:12:03.702Z,66.0
2018-08-03T00:13:05.100Z,65.4
2018-08-03T00:14:06.495Z,66.4
2018-08-03T00:15:07.912Z,66.5
2018-08-03T00:16:09.424Z,66.1
2018-08-03T00:17:10.887Z,66.3
2018-08-03T00:18:12.339Z,66.1
2018-08-03T00:19:13.733Z,66.0
2018-08-03T00:20:15.128Z,67.1
2018-08-03T00:21:16.523Z,67.0
2018-08-03T00:22:17.922Z,66.9
2018-08-03T00:23:19.318Z,67.1
2018-08-03T00:24:20.719Z,67.9
2018-08-03T00:25:22.128Z,66.8
2018-08-03T00:26:23.514Z,66.9
2018-08-03T00:27:24.916Z,67.6
2018-08-03T00:28:26.307Z,67.7
2018-08-03T00:29:27.709Z,67.4
2018-08-03T00:30:29.104Z,67.2
2018-08-03T00:31:30.504Z,67.7
2018-08-03T00:32:31.903Z,67.2
2018-08-03T00:33:33.304Z,67.6
2018-08-03T00:34:34.699Z,67.7
2018-08-03T00:35:36.095Z,67.9
2018-08-03T00:36:37.489Z,67.4
2018-08-03T00:37:38.879Z,68.8
2018-08-03T00:38:40.272Z,67.4
2018-08-03T00:39:41.666Z,67.9
2018-08-03T00:40:43.059Z,66.9
2018-08-03T00:41:44.461Z,66.9
2018-08-03T00:42:45.854Z,68.3
2018-08-03T00:43:47.264Z,68.8
2018-08-03T00:44:48.657Z,68.2
2018-08-03T00:45:50.050Z,68.5
2018-08-03T00:46:51.446Z,68.5
2018-08-03T00:47:52.840Z,68.4
2018-08-03T00:48:54.237Z,68.1
2018-08-03T00:49:55.628Z,68.5
2018-08-03T00:50:57.028Z,68.3
2018-08-03T00:51:58.423Z,68.8
2018-08-03T00:52:59.817Z,69.7
2018-08-03T00:54:01.218Z,68.5
2018-08-03T00:55:02.615Z,69.2
2018-08-03T00:56:04.011Z,69.2
2018-08-03T00:57:05.478Z,68.6
2018-08-03T00:58:06.817Z,69.2
2018-08-03T00:59:08.215Z,69.5
2018-08-03T01:00:09.612Z,69.2
2018-08-03T01:01:11.012Z,69.2
2018-08-03T01:02:12.408Z,69.5
2018-08-03T01:03:13.804Z,69.6
2018-08-03T01:04:15.196Z,69.3
2018-08-03T01:05:16.595Z,69.7
2018-08-03T01:06:18.014Z,69.7
2018-08-03T01:07:19.381Z,69.4
2018-08-03T01:08:20.783Z,69.7
2018-08-03T01:09:22.177Z,69.1
2018-08-03T01:10:23.571Z,69.8
2018-08-03T01:11:24.966Z,69.8
2018-08-03T01:12:26.356Z,69.7
2018-08-03T01:13:27.751Z,69.4
2018-08-03T01:14:29.147Z,69.4
2018-08-03T01:15:30.542Z,69.7
2018-08-03T01:16:31.946Z,69.9
2018-08-03T01:17:33.388Z,69.7
2018-08-03T01:18:34.784Z,69.7
2018-08-03T01:19:36.178Z,70.2
2018-08-03T01:20:37.570Z,69.8
2018-08-03T01:21:38.969Z,69.8
2018-08-03T01:22:40.362Z,69.7
2018-08-03T01:23:41.763Z,69.9
2018-08-03T01:24:43.160Z,69.8
2018-08-03T01:25:44.553Z,69.8
2018-08-03T01:26:45.955Z,70.6
2018-08-03T01:27:47.350Z,70.3
2018-08-03T01:28:48.749Z,71.2
2018-08-03T01:29:50.144Z,70.4
2018-08-03T01:30:51.544Z,70.5
2018-08-03T01:31:52.940Z,71.1
2018-08-03T01:32:54.341Z,70.4
2018-08-03T01:33:55.757Z,70.8
2018-08-03T01:34:57.131Z,70.6
2018-08-03T01:35:58.532Z,70.9
2018-08-03T01:36:59.926Z,70.9
2018-08-03T01:38:01.481Z,71.0
2018-08-03T01:39:02.886Z,70.8
2018-08-03T01:40:04.275Z,70.8
2018-08-03T01:41:05.671Z,72.0
2018-08-03T01:42:07.074Z,71.6
2018-08-03T01:43:08.465Z,71.2
2018-08-03T01:44:09.861Z,71.6
2018-08-03T01:45:11.261Z,70.9
2018-08-03T01:46:12.665Z,71.5
2018-08-03T01:47:14.057Z,71.0
2018-08-03T01:48:15.452Z,71.5
2018-08-03T01:49:16.885Z,71.8
2018-08-03T01:50:18.262Z,71.7
2018-08-03T01:51:19.660Z,71.4
2018-08-03T01:52:21.058Z,71.6
2018-08-03T01:53:22.471Z,71.3
2018-08-03T01:54:23.865Z,72.2
2018-08-03T01:55:25.264Z,72.2
2018-08-03T01:56:26.658Z,71.8
2018-08-03T01:57:28.056Z,72.2
2018-08-03T01:58:29.456Z,72.4
2018-08-03T01:59:30.854Z,72.3
2018-08-03T02:00:32.251Z,72.5
2018-08-03T02:01:33.646Z,73.2
2018-08-03T02:02:35.040Z,72.9
2018-08-03T02:03:36.432Z,72.6
2018-08-03T02:04:37.829Z,72.6
2018-08-03T02:05:39.220Z,72.3
2018-08-03T02:06:40.618Z,72.6
2018-08-03T02:07:42.016Z,73.2
2018-08-03T02:08:43.412Z,73.2
2018-08-03T02:09:44.809Z,73.2
2018-08-03T02:10:46.200Z,72.8
2018-08-03T02:11:47.597Z,73.0
2018-08-03T02:12:48.996Z,73.2
2018-08-03T02:13:50.392Z,73.0
2018-08-03T02:14:51.787Z,72.7
2018-08-03T02:15:53.184Z,73.2
2018-08-03T02:16:54.575Z,73.4
2018-08-03T02:17:55.994Z,72.8
2018-08-03T02:18:57.428Z,72.8
2018-08-03T02:19:58.822Z,73.4
2018-08-03T02:21:00.219Z,73.5
2018-08-03T02:22:01.618Z,73.5
2018-08-03T02:23:03.011Z,73.4
2018-08-03T02:24:04.405Z,73.6
2018-08-03T02:25:05.802Z,73.5
2018-08-03T02:26:07.197Z,73.5
2018-08-03T02:27:08.590Z,73.9
2018-08-03T02:28:09.985Z,73.5
2018-08-03T02:29:11.378Z,73.4
2018-08-03T02:30:12.768Z,73.3
2018-08-03T02:31:14.167Z,73.6
2018-08-03T02:32:15.559Z,74.6
2018-08-03T02:33:16.957Z,74.6
2018-08-03T02:34:18.352Z,74.6
2018-08-03T02:35:19.750Z,74.7
2018-08-03T02:36:21.146Z,74.6
2018-08-03T02:37:22.533Z,74.4
2018-08-03T02:38:23.929Z,74.4
2018-08-03T02:39:25.328Z,74.2
2018-08-03T02:40:26.724Z,74.5
2018-08-03T02:41:28.120Z,75.1
2018-08-03T02:42:29.519Z,74.8
2018-08-03T02:43:30.912Z,74.7
2018-08-03T02:44:32.311Z,74.7
2018-08-03T02:45:33.706Z,75.0
2018-08-03T02:46:35.103Z,74.8
2018-08-03T02:47:36.499Z,75.0
2018-08-03T02:48:37.893Z,75.2
2018-08-03T02:49:39.292Z,75.2
2018-08-03T02:50:40.689Z,75.9
2018-08-03T02:51:42.086Z,75.3
2018-08-03T02:52:43.478Z,75.4
2018-08-03T02:53:44.871Z,75.3
2018-08-03T02:54:46.267Z,74.9
2018-08-03T02:55:47.662Z,75.3
2018-08-03T02:56:49.057Z,75.6
2018-08-03T02:57:50.454Z,75.7
2018-08-03T02:58:51.978Z,75.8
2018-08-03T02:59:53.369Z,75.7
2018-08-03T03:00:54.762Z,75.9
2018-08-03T03:01:56.159Z,75.8
2018-08-03T03:02:57.552Z,75.6
2018-08-03T03:03:58.952Z,75.4
2018-08-03T03:05:00.347Z,76.0
2018-08-03T03:06:01.745Z,75.7
2018-08-03T03:07:03.143Z,76.6
2018-08-03T03:08:04.536Z,77.7
2018-08-03T03:09:05.937Z,77.1
2018-08-03T03:10:07.326Z,76.6
2018-08-03T03:11:08.723Z,76.9
2018-08-03T03:12:10.121Z,76.5
2018-08-03T03:13:11.518Z,76.6
2018-08-03T03:14:12.910Z,76.6
2018-08-03T03:15:14.304Z,76.4
2018-08-03T03:16:15.700Z,76.5
2018-08-03T03:17:17.095Z,76.7
2018-08-03T03:18:18.489Z,76.9
2018-08-03T03:19:19.901Z,76.7
2018-08-03T03:20:21.275Z,77.1
2018-08-03T03:21:22.668Z,76.9
2018-08-03T03:22:24.064Z,76.7
2018-08-03T03:23:25.459Z,76.8
2018-08-03T03:24:26.857Z,76.9
2018-08-03T03:25:28.254Z,76.9
2018-08-03T03:26:29.654Z,77.2
2018-08-03T03:27:31.046Z,77.4
2018-08-03T03:28:32.436Z,77.1
2018-08-03T03:29:33.827Z,77.4
2018-08-03T03:30:35.220Z,77.3
2018-08-03T03:31:36.618Z,77.6
2018-08-03T03:32:38.067Z,77.5
2018-08-03T03:33:39.406Z,77.4
2018-08-03T03:34:40.820Z,77.9
2018-08-03T03:35:42.215Z,77.1
2018-08-03T03:36:43.612Z,77.5
2018-08-03T03:37:45.010Z,77.5
2018-08-03T03:38:46.418Z,77.3
2018-08-03T03:39:47.887Z,76.8
2018-08-03T03:40:49.279Z,77.3
2018-08-03T03:41:50.675Z,77.8
2018-08-03T03:42:52.076Z,77.2
2018-08-03T03:43:53.474Z,77.5
2018-08-03T03:44:54.863Z,77.3
2018-08-03T03:45:56.262Z,77.9
2018-08-03T03:46:57.659Z,77.7
2018-08-03T03:47:59.057Z,78.3
2018-08-03T03:49:00.449Z,77.7
2018-08-03T03:50:01.865Z,77.7
2018-08-03T03:51:03.286Z,78.3
2018-08-03T03:52:04.657Z,78.0
2018-08-03T03:53:06.057Z,78.0
2018-08-03T03:54:07.455Z,78.1
2018-08-03T03:55:08.853Z,78.6
2018-08-03T03:56:10.252Z,78.6
2018-08-03T03:57:11.646Z,78.2
2018-08-03T03:58:13.044Z,78.2
2018-08-03T03:59:14.448Z,78.2
2018-08-03T04:00:15.832Z,78.9
2018-08-03T04:01:17.225Z,78.5
2018-08-03T04:02:18.614Z,78.4
2018-08-03T04:03:20.008Z,78.4
2018-08-03T04:04:21.412Z,78.9
2018-08-03T04:05:22.800Z,78.6
2018-08-03T04:06:24.195Z,78.5
2018-08-03T04:07:25.597Z,78.9
2018-08-03T04:08:27.000Z,79.0
2018-08-03T04:09:28.394Z,79.1
2018-08-03T04:10:29.791Z,79.4
2018-08-03T04:11:31.186Z,78.9
2018-08-03T04:12:32.584Z,78.5
2018-08-03T04:13:33.978Z,78.6
2018-08-03T04:14:35.376Z,78.6
2018-08-03T04:15:36.773Z,78.4
2018-08-03T04:16:38.172Z,78.6
2018-08-03T04:17:39.565Z,78.3
2018-08-03T04:18:40.960Z,78.7
2018-08-03T04:19:42.484Z,78.8
2018-08-03T04:20:43.903Z,78.6
2018-08-03T04:21:45.304Z,79.5
2018-08-03T04:22:46.697Z,79.0
2018-08-03T04:23:48.097Z,78.6
2018-08-03T04:24:49.494Z,79.2
2018-08-03T04:25:50.892Z,79.0
2018-08-03T04:26:52.299Z,79.3
2018-08-03T04:27:53.761Z,79.5
2018-08-03T04:28:55.096Z,79.2
2018-08-03T04:29:56.492Z,79.3
2018-08-03T04:30:57.893Z,79.0
2018-08-03T04:31:59.294Z,79.5
2018-08-03T04:33:00.684Z,79.5
2018-08-03T04:34:02.087Z,79.8
2018-08-03T04:35:03.492Z,80.0
2018-08-03T04:36:04.887Z,79.7
2018-08-03T04:37:06.284Z,79.4
2018-08-03T04:38:07.683Z,79.6
2018-08-03T04:39:09.082Z,79.7
2018-08-03T04:40:10.476Z,79.6
2018-08-03T04:41:11.884Z,79.9
2018-08-03T04:42:13.395Z,79.6
2018-08-03T04:43:14.683Z,79.8
2018-08-03T04:44:16.085Z,79.8
2018-08-03T04:45:17.488Z,79.6
2018-08-03T04:46:18.879Z,79.9
2018-08-03T04:47:20.271Z,79.7
2018-08-03T04:48:21.672Z,79.6
2018-08-03T04:49:23.073Z,79.7
2018-08-03T04:50:24.468Z,79.1
2018-08-03T04:51:25.868Z,79.5
2018-08-03T04:52:27.265Z,79.7
2018-08-03T04:53:28.662Z,79.9
2018-08-03T04:54:30.056Z,79.8
2018-08-03T04:55:31.449Z,80.1
2018-08-03T04:56:32.850Z,80.0
2018-08-03T04:57:34.245Z,80.1
2018-08-03T04:58:35.641Z,80.5
2018-08-03T04:59:37.068Z,80.8
2018-08-03T05:00:38.538Z,81.1
2018-08-03T05:01:39.934Z,80.5
2018-08-03T05:02:41.348Z,81.5
2018-08-03T05:03:42.746Z,81.2
2018-08-03T05:04:44.163Z,81.2
2018-08-03T05:05:45.545Z,80.6
2018-08-03T05:06:46.947Z,81.2
2018-08-03T05:07:48.349Z,80.7
2018-08-03T05:08:49.750Z,80.7
2018-08-03T05:09:51.143Z,80.6
2018-08-03T05:10:52.543Z,80.8
2018-08-03T05:11:53.941Z,80.8
2018-08-03T05:12:55.343Z,80.6
2018-08-03T05:13:56.746Z,80.8
2018-08-03T05:14:58.142Z,81.0
2018-08-03T05:15:59.536Z,80.7
2018-08-03T05:17:00.938Z,81.3
2018-08-03T05:18:02.336Z,81.3
2018-08-03T05:19:03.740Z,80.6
2018-08-03T05:20:05.140Z,81.1
2018-08-03T05:21:06.537Z,80.8
2018-08-03T05:22:07.933Z,80.6
2018-08-03T05:23:09.326Z,81.5
2018-08-03T05:24:10.732Z,81.1
2018-08-03T05:25:12.123Z,80.6
2018-08-03T05:26:13.528Z,80.6
2018-08-03T05:27:14.929Z,81.0
2018-08-03T05:28:16.335Z,80.3
2018-08-03T05:29:17.724Z,80.2
2018-08-03T05:30:19.143Z,80.1
2018-08-03T05:31:20.522Z,80.0
2018-08-03T05:32:21.922Z,79.8
2018-08-03T05:33:23.320Z,79.5
2018-08-03T05:34:24.715Z,79.6
2018-08-03T05:35:26.117Z,79.4
2018-08-03T05:36:27.515Z,79.6
2018-08-03T05:37:28.911Z,79.0
2018-08-03T05:38:30.307Z,79.1
2018-08-03T05:39:31.703Z,79.1
2018-08-03T05:40:33.170Z,79.1
2018-08-03T05:41:34.598Z,79.2
2018-08-03T05:42:36.070Z,79.3
2018-08-03T05:43:37.400Z,79.5
2018-08-03T05:44:38.797Z,79.3
2018-08-03T05:45:40.201Z,79.0
2018-08-03T05:46:41.593Z,78.4
2018-08-03T05:47:42.991Z,78.8
2018-08-03T05:48:44.389Z,78.4
2018-08-03T05:49:45.793Z,78.2
2018-08-03T05:50:47.192Z,78.1
2018-08-03T05:51:48.588Z,78.1
2018-08-03T05:52:49.980Z,78.6
2018-08-03T05:53:51.380Z,78.7
2018-08-03T05:54:52.779Z,78.3
2018-08-03T05:55:54.179Z,78.2
2018-08-03T05:56:55.581Z,77.6
2018-08-03T05:57:56.999Z,78.8
2018-08-03T05:58:58.381Z,78.3
2018-08-03T05:59:59.776Z,78.0
2018-08-03T06:01:01.174Z,78.0
2018-08-03T06:02:02.572Z,78.0
2018-08-03T06:03:03.968Z,77.6
2018-08-03T06:04:05.404Z,78.0
2018-08-03T06:05:06.771Z,77.4
2018-08-03T06:06:08.164Z,76.9
2018-08-03T06:07:09.562Z,77.2
2018-08-03T06:08:10.986Z,77.1
2018-08-03T06:09:12.360Z,77.6
2018-08-03T06:10:13.762Z,77.2
2018-08-03T06:11:15.168Z,77.4
2018-08-03T06:12:16.573Z,76.8
2018-08-03T06:13:17.977Z,77.0
2018-08-03T06:14:19.377Z,76.4
2018-08-03T06:15:20.776Z,76.7
2018-08-03T06:16:22.178Z,76.3
2018-08-03T06:17:23.578Z,76.1
2018-08-03T06:18:24.982Z,75.9
2018-08-03T06:19:26.379Z,76.1
2018-08-03T06:20:27.856Z,75.7
2018-08-03T06:21:29.278Z,75.9
2018-08-03T06:22:30.682Z,75.1
2018-08-03T06:23:32.082Z,74.7
2018-08-03T06:24:33.479Z,74.7
2018-08-03T06:25:34.883Z,74.6
2018-08-03T06:26:36.281Z,74.5
2018-08-03T06:27:37.680Z,74.4
2018-08-03T06:28:39.079Z,74.7
2018-08-03T06:29:40.485Z,74.4
2018-08-03T06:30:41.876Z,74.4
2018-08-03T06:31:43.280Z,73.3
2018-08-03T06:32:44.677Z,73.5
2018-08-03T06:33:46.072Z,73.5
2018-08-03T06:34:47.477Z,74.4
2018-08-03T06:35:48.881Z,73.9
2018-08-03T06:36:50.276Z,73.2
2018-08-03T06:37:51.680Z,73.6
2018-08-03T06:38:53.082Z,73.2
2018-08-03T06:39:54.483Z,73.3
2018-08-03T06:40:55.885Z,73.5
2018-08-03T06:41:57.287Z,72.9
2018-08-03T06:42:58.682Z,72.6
2018-08-03T06:44:00.086Z,73.2
2018-08-03T06:45:01.482Z,72.3
2018-08-03T06:46:02.881Z,72.3
2018-08-03T06:47:04.285Z,72.3
2018-08-03T06:48:05.687Z,72.6
2018-08-03T06:49:07.085Z,72.0
2018-08-03T06:50:08.484Z,72.1
2018-08-03T06:51:09.891Z,72.1
2018-08-03T06:52:11.287Z,72.2
2018-08-03T06:53:12.684Z,73.2
2018-08-03T06:54:14.089Z,72.8
2018-08-03T06:55:15.486Z,72.6
2018-08-03T06:56:16.892Z,71.9
2018-08-03T06:57:18.280Z,72.2
2018-08-03T06:58:19.683Z,70.5
2018-08-03T06:59:21.086Z,70.9
2018-08-03T07:00:22.571Z,70.8
2018-08-03T07:01:23.975Z,70.5
2018-08-03T07:02:25.370Z,70.7
2018-08-03T07:03:26.775Z,70.4
2018-08-03T07:04:28.192Z,70.5
2018-08-03T07:05:29.567Z,71.1
2018-08-03T07:06:30.969Z,70.4
2018-08-03T07:07:32.368Z,70.5
2018-08-03T07:08:33.796Z,70.6
2018-08-03T07:09:35.167Z,70.7
2018-08-03T07:10:36.566Z,69.9
2018-08-03T07:11:37.961Z,70.0
2018-08-03T07:12:39.360Z,69.0
2018-08-03T07:13:40.762Z,69.3
2018-08-03T07:14:42.197Z,69.3
2018-08-03T07:15:43.522Z,68.8
2018-08-03T07:16:44.926Z,68.6
2018-08-03T07:17:46.324Z,67.8
2018-08-03T07:18:47.726Z,67.6
2018-08-03T07:19:49.193Z,68.0
2018-08-03T07:20:50.532Z,66.7
2018-08-03T07:21:51.932Z,67.9
2018-08-03T07:22:53.412Z,66.9
2018-08-03T07:23:54.811Z,68.0
2018-08-03T07:24:56.210Z,67.0
2018-08-03T07:25:57.662Z,66.7
2018-08-03T07:26:59.010Z,66.9
2018-08-03T07:28:00.406Z,66.9
2018-08-03T07:29:01.807Z,66.5
2018-08-03T07:30:03.211Z,67.0
2018-08-03T07:31:04.609Z,67.1
2018-08-03T07:32:06.038Z,67.0
2018-08-03T07:33:07.419Z,66.4
2018-08-03T07:34:08.813Z,66.1
2018-08-03T07:35:10.218Z,66.1
2018-08-03T07:36:11.619Z,66.2
2018-08-03T07:37:13.023Z,66.6
2018-08-03T07:38:14.415Z,65.8
2018-08-03T07:39:15.818Z,65.3
2018-08-03T07:40:17.219Z,65.0
2018-08-03T07:41:18.657Z,64.8
2018-08-03T07:42:20.059Z,65.3
2018-08-03T07:43:21.544Z,64.4
2018-08-03T07:44:22.904Z,63.9
2018-08-03T07:45:24.278Z,63.8
2018-08-03T07:46:25.676Z,63.8
2018-08-03T07:47:27.083Z,63.4
2018-08-03T07:48:28.481Z,64.2
2018-08-03T07:49:29.885Z,63.2
2018-08-03T07:50:31.286Z,62.9
2018-08-03T07:51:32.688Z,63.0
2018-08-03T07:52:34.126Z,62.6
2018-08-03T07:53:35.493Z,63.3
2018-08-03T07:54:36.895Z,62.7
2018-08-03T07:55:38.295Z,61.6
2018-08-03T07:56:39.697Z,61.5
2018-08-03T07:57:41.098Z,62.0
2018-08-03T07:58:42.506Z,61.5
2018-08-03T07:59:43.914Z,62.1
2018-08-03T08:00:45.314Z,61.8
2018-08-03T08:01:46.715Z,61.1
2018-08-03T08:02:48.116Z,60.9
2018-08-03T08:03:49.516Z,60.8
2018-08-03T08:04:50.920Z,60.9
2018-08-03T08:05:52.331Z,59.7
2018-08-03T08:06:53.733Z,59.7
2018-08-03T08:07:55.134Z,58.6
2018-08-03T08:08:56.538Z,58.5
2018-08-03T08:09:57.940Z,58.8
2018-08-03T08:10:59.341Z,58.8
2018-08-03T08:12:00.740Z,59.1
2018-08-03T08:13:02.146Z,59.3
2018-08-03T08:14:03.544Z,57.6
2018-08-03T08:15:05.004Z,57.8
2018-08-03T08:16:06.356Z,59.0
2018-08-03T08:17:07.787Z,57.7
2018-08-03T08:18:09.198Z,57.5
2018-08-03T08:19:10.604Z,57.4
2018-08-03T08:20:12.047Z,57.5
2018-08-03T08:21:13.589Z,57.4
2018-08-03T08:22:14.987Z,56.8
2018-08-03T08:23:16.396Z,56.3
2018-08-03T08:24:17.793Z,56.6
2018-08-03T08:25:19.206Z,56.2
2018-08-03T08:26:20.609Z,55.8
2018-08-03T08:27:22.017Z,56.8
2018-08-03T08:28:23.416Z,56.7
2018-08-03T08:29:24.818Z,57.2
2018-08-03T08:30:26.219Z,56.3
2018-08-03T08:31:27.622Z,55.6
2018-08-03T08:32:29.026Z,56.0
2018-08-03T08:33:30.426Z,56.1
2018-08-03T08:34:31.837Z,55.9
2018-08-03T08:35:33.244Z,55.6
2018-08-03T08:36:34.650Z,55.9
2018-08-03T08:37:36.058Z,55.0
2018-08-03T08:38:37.459Z,55.2
2018-08-03T08:39:38.867Z,54.4
2018-08-03T08:40:40.268Z,55.2
2018-08-03T08:41:41.670Z,54.1
2018-08-03T08:42:43.075Z,53.2
2018-08-03T08:43:44.536Z,53.3
2018-08-03T08:44:45.882Z,54.8
2018-08-03T08:45:47.286Z,53.3
2018-08-03T08:46:48.690Z,53.2
2018-08-03T08:47:50.094Z,54.6
2018-08-03T08:48:51.506Z,54.6
2018-08-03T08:49:52.909Z,54.7
2018-08-03T08:50:54.312Z,53.8
2018-08-03T08:51:55.712Z,53.8
2018-08-03T08:52:57.121Z,54.2
2018-08-03T08:53:58.519Z,53.9
2018-08-03T08:54:59.920Z,53.3
2018-08-03T08:56:01.323Z,52.1
2018-08-03T08:57:02.727Z,53.0
2018-08-03T08:58:04.136Z,53.1
2018-08-03T08:59:05.540Z,53.0
2018-08-03T09:00:06.994Z,52.3
2018-08-03T09:01:08.446Z,50.4
2018-08-03T09:02:09.803Z,51.0
2018-08-03T09:03:11.209Z,51.1
2018-08-03T09:04:12.611Z,52.2
2018-08-03T09:05:14.023Z,52.1
2018-08-03T09:06:15.428Z,51.9
2018-08-03T09:07:16.839Z,51.5
2018-08-03T09:08:18.245Z,50.8
2018-08-03T09:09:19.653Z,50.8
2018-08-03T09:10:21.056Z,50.3
2018-08-03T09:11:22.460Z,49.6
2018-08-03T09:12:23.864Z,50.0
2018-08-03T09:13:25.269Z,49.6
2018-08-03T09:14:26.672Z,49.4
2018-08-03T09:15:28.076Z,49.5
2018-08-03T09:16:29.482Z,49.3
2018-08-03T09:17:30.893Z,49.0
2018-08-03T09:18:32.303Z,49.6
2018-08-03T09:19:33.697Z,49.4
2018-08-03T09:20:35.103Z,49.5
2018-08-03T09:21:36.934Z,49.2
2018-08-03T09:22:38.704Z,48.3
2018-08-03T09:23:40.112Z,47.8
2018-08-03T09:24:41.556Z,48.4
2018-08-03T09:25:42.919Z,46.7
2018-08-03T09:26:44.320Z,47.7
2018-08-03T09:27:45.723Z,46.9
2018-08-03T09:28:47.128Z,47.3
2018-08-03T09:29:48.537Z,45.9
2018-08-03T09:30:49.946Z,46.5
2018-08-03T09:31:51.368Z,47.7
2018-08-03T09:32:52.760Z,47.3
2018-08-03T09:33:54.170Z,48.0
2018-08-03T09:34:55.577Z,48.0
2018-08-03T09:35:56.985Z,47.4
2018-08-03T09:36:58.390Z,48.1
2018-08-03T09:37:59.834Z,46.8
2018-08-03T09:39:01.240Z,46.6
2018-08-03T09:40:02.643Z,45.8
2018-08-03T09:41:04.047Z,45.0
2018-08-03T09:42:05.454Z,45.4
2018-08-03T09:43:06.866Z,45.3
2018-08-03T09:44:08.270Z,44.6
2018-08-03T09:45:09.678Z,45.3
2018-08-03T09:46:11.088Z,46.4
2018-08-03T09:47:12.492Z,45.0
2018-08-03T09:48:13.896Z,45.8
2018-08-03T09:49:15.330Z,45.3
2018-08-03T09:50:16.702Z,45.1
2018-08-03T09:51:18.106Z,44.9
2018-08-03T09:52:19.508Z,45.1
2018-08-03T09:53:20.912Z,45.1
2018-08-03T09:54:22.320Z,44.7
2018-08-03T09:55:23.768Z,44.8
2018-08-03T09:56:25.122Z,44.6
2018-08-03T09:57:26.530Z,42.9
2018-08-03T09:58:27.929Z,45.0
2018-08-03T09:59:29.335Z,44.8
2018-08-03T10:00:30.745Z,42.8
2018-08-03T10:01:32.151Z,43.2
2018-08-03T10:02:33.554Z,43.1
2018-08-03T10:03:34.966Z,43.3
2018-08-03T10:04:36.385Z,42.7
2018-08-03T10:05:37.795Z,44.1
2018-08-03T10:06:39.199Z,44.1
2018-08-03T10:07:40.601Z,43.6
2018-08-03T10:08:42.009Z,42.8
2018-08-03T10:09:43.421Z,43.1
2018-08-03T10:10:44.831Z,43.8
2018-08-03T10:11:46.237Z,43.1
2018-08-03T10:12:47.685Z,42.3
2018-08-03T10:13:49.047Z,41.5
2018-08-03T10:14:50.451Z,41.4
2018-08-03T10:15:52.036Z,41.7
2018-08-03T10:16:53.438Z,43.0
2018-08-03T10:17:54.852Z,42.3
2018-08-03T10:18:56.257Z,42.0
2018-08-03T10:19:57.670Z,42.4
2018-08-03T10:20:59.085Z,42.2
2018-08-03T10:22:00.495Z,42.7
2018-08-03T10:23:01.909Z,41.7
2018-08-03T10:24:03.310Z,42.0
2018-08-03T10:25:04.718Z,42.1
2018-08-03T10:26:06.129Z,41.0
2018-08-03T10:27:07.536Z,41.2
2018-08-03T10:28:08.941Z,41.0
2018-08-03T10:29:10.359Z,40.1
2018-08-03T10:30:11.771Z,40.7
2018-08-03T10:31:13.180Z,39.8
2018-08-03T10:32:14.585Z,40.6
2018-08-03T10:33:15.999Z,40.6
2018-08-03T10:34:17.404Z,40.8
2018-08-03T10:35:18.811Z,40.7
2018-08-03T10:36:20.217Z,40.9
2018-08-03T10:37:21.626Z,41.0
2018-08-03T10:38:23.033Z,39.5
2018-08-03T10:39:24.442Z,39.5
2018-08-03T10:40:25.847Z,39.1
2018-08-03T10:41:27.251Z,38.9
2018-08-03T10:42:28.662Z,39.6
2018-08-03T10:43:30.076Z,39.6
2018-08-03T10:44:31.483Z,38.8
2018-08-03T10:45:32.886Z,37.7
2018-08-03T10:46:34.293Z,38.4
2018-08-03T10:47:35.700Z,37.9
2018-08-03T10:48:37.129Z,38.0
2018-08-03T10:49:38.517Z,38.4
2018-08-03T10:50:39.929Z,38.2
2018-08-03T10:51:41.335Z,39.2
2018-08-03T10:52:42.753Z,38.8
2018-08-03T10:53:44.248Z,37.7
2018-08-03T10:54:45.662Z,38.1
2018-08-03T10:55:47.071Z,36.9
2018-08-03T10:56:48.480Z,37.0
2018-08-03T10:57:49.897Z,36.7
2018-08-03T10:58:51.297Z,36.9
2018-08-03T10:59:52.709Z,35.7
2018-08-03T11:00:54.114Z,35.7
2018-08-03T11:01:55.524Z,34.5
2018-08-03T11:02:56.936Z,34.1
2018-08-03T11:03:58.360Z,34.6
2018-08-03T11:04:59.766Z,36.3
2018-08-03T11:06:01.172Z,35.9
2018-08-03T11:07:02.589Z,34.9
2018-08-03T11:08:04.001Z,35.1
2018-08-03T11:09:05.417Z,34.3
2018-08-03T11:10:06.827Z,33.8
2018-08-03T11:11:08.240Z,33.6
2018-08-03T11:12:09.658Z,33.4
2018-08-03T11:13:11.070Z,34.5
2018-08-03T11:14:12.475Z,34.4
2018-08-03T11:15:13.890Z,33.7
2018-08-03T11:16:15.339Z,34.7
2018-08-03T11:17:16.729Z,33.6
2018-08-03T11:18:18.140Z,34.0
2018-08-03T11:19:19.558Z,33.7
2018-08-03T11:20:20.982Z,33.6
2018-08-03T11:21:22.394Z,32.2
2018-08-03T11:22:23.813Z,33.2
2018-08-03T11:23:25.225Z,33.8
2018-08-03T11:24:26.644Z,32.4
2018-08-03T11:25:28.048Z,32.4
2018-08-03T11:26:29.463Z,31.3
2018-08-03T11:27:30.877Z,33.1
2018-08-03T11:28:32.290Z,32.5
2018-08-03T11:29:33.738Z,31.0
2018-08-03T11:30:35.118Z,31.0
2018-08-03T11:31:36.649Z,31.2
2018-08-03T11:32:38.061Z,30.7
2018-08-03T11:33:39.475Z,32.9
2018-08-03T11:34:40.884Z,32.6
2018-08-03T11:35:42.293Z,30.6
2018-08-03T11:36:43.703Z,29.8
2018-08-03T11:37:45.120Z,31.3
2018-08-03T11:38:46.715Z,31.5
2018-08-03T11:39:48.071Z,31.8
2018-08-03T11:40:49.509Z,31.0
2018-08-03T11:41:50.899Z,31.9
2018-08-03T11:42:52.868Z,31.2
2018-08-03T11:43:54.245Z,31.1
2018-08-03T11:44:55.654Z,31.6
2018-08-03T11:45:57.063Z,31.5
2018-08-03T11:46:58.475Z,31.2
2018-08-03T11:47:59.889Z,30.8
2018-08-03T11:49:01.299Z,30.7
2018-08-03T11:50:02.709Z,29.9
2018-08-03T11:51:04.120Z,30.7
2018-08-03T11:52:05.532Z,30.0
2018-08-03T11:53:06.944Z,30.1
2018-08-03T11:54:08.411Z,29.9
2018-08-03T11:55:09.768Z,29.8
2018-08-03T11:56:11.179Z,30.8
2018-08-03T11:57:12.590Z,31.1
2018-08-03T11:58:14.003Z,30.7
2018-08-03T11:59:15.421Z,30.9
2018-08-03T12:00:16.894Z,29.7
2018-08-03T12:01:18.310Z,28.3
2018-08-03T12:02:19.725Z,27.7
2018-08-03T12:03:21.132Z,28.4
2018-08-03T12:04:22.589Z,28.0
2018-08-03T12:05:23.995Z,27.6
2018-08-03T12:06:25.418Z,27.3
2018-08-03T12:07:26.822Z,29.4
2018-08-03T12:08:28.262Z,29.1
2018-08-03T12:09:29.719Z,27.1
2018-08-03T12:10:31.129Z,27.8
2018-08-03T12:11:32.546Z,27.6
2018-08-03T12:12:33.989Z,28.2
2018-08-03T12:13:35.360Z,27.5
2018-08-03T12:14:36.790Z,27.7
2018-08-03T12:15:38.206Z,27.8
2018-08-03T12:16:39.634Z,28.4
2018-08-03T12:17:41.047Z,26.6
2018-08-03T12:18:42.458Z,27.6
2018-08-03T12:19:43.870Z,27.9
2018-08-03T12:20:45.279Z,27.2
2018-08-03T12:21:46.714Z,27.2
2018-08-03T12:22:48.127Z,27.9
2018-08-03T12:23:49.567Z,28.9
2018-08-03T12:24:50.948Z,28.4
2018-08-03T12:25:52.362Z,28.8
2018-08-03T12:26:53.778Z,29.0
2018-08-03T12:27:55.192Z,28.5
2018-08-03T12:28:56.604Z,28.0
2018-08-03T12:29:58.015Z,27.9
2018-08-03T12:30:59.428Z,28.1
2018-08-03T12:32:00.837Z,26.6
2018-08-03T12:33:02.249Z,27.3
2018-08-03T12:34:03.669Z,27.8
2018-08-03T12:35:05.080Z,27.5
2018-08-03T12:36:06.485Z,28.6
2018-08-03T12:37:07.921Z,29.4
2018-08-03T12:38:09.325Z,27.2
2018-08-03T12:39:10.736Z,26.7
2018-08-03T12:40:12.151Z,26.3
2018-08-03T12:41:13.567Z,27.3
2018-08-03T12:42:14.985Z,27.7
2018-08-03T12:43:16.408Z,28.0
2018-08-03T12:44:17.817Z,27.6
2018-08-03T12:45:19.232Z,27.9
2018-08-03T12:46:20.669Z,27.9
2018-08-03T12:47:22.101Z,26.7
2018-08-03T12:48:23.519Z,26.8
2018-08-03T12:49:24.927Z,26.3
2018-08-03T12:50:26.340Z,27.3
2018-08-03T12:51:27.764Z,27.2
2018-08-03T12:52:29.204Z,26.0
2018-08-03T12:53:30.745Z,26.3
2018-08-03T12:54:32.158Z,27.1
2018-08-03T12:55:33.567Z,26.9
2018-08-03T12:56:34.988Z,27.6
2018-08-03T12:57:36.397Z,26.8
2018-08-03T12:58:37.815Z,26.8
2018-08-03T12:59:39.313Z,26.3
2018-08-03T13:00:40.658Z,26.7
2018-08-03T13:01:42.073Z,27.9
2018-08-03T13:02:43.541Z,28.6
2018-08-03T13:03:44.898Z,27.6
2018-08-03T13:04:46.312Z,27.4
2018-08-03T13:05:47.724Z,27.2
2018-08-03T13:06:49.415Z,27.4
2018-08-03T13:07:51.013Z,27.8
2018-08-03T13:08:52.466Z,27.5
2018-08-03T13:09:53.932Z,26.5
2018-08-03T13:10:55.365Z,26.6
2018-08-03T13:11:57.065Z,26.5
2018-08-03T13:12:58.535Z,25.0
2018-08-03T13:13:59.983Z,26.0
2018-08-03T13:15:01.445Z,26.5
2018-08-03T13:16:02.877Z,25.5
2018-08-03T13:17:04.299Z,25.5
2018-08-03T13:18:05.722Z,24.5
2018-08-03T13:19:07.271Z,25.9
2018-08-03T13:20:08.688Z,26.7
2018-08-03T13:21:10.114Z,26.5
2018-08-03T13:22:11.510Z,25.8
2018-08-03T13:23:12.920Z,26.2
2018-08-03T13:24:14.415Z,25.7
2018-08-03T13:25:15.862Z,26.2
2018-08-03T13:26:17.273Z,25.1
2018-08-03T13:27:18.793Z,26.3
2018-08-03T13:28:20.174Z,26.0
2018-08-03T13:29:21.598Z,23.6
2018-08-03T13:30:23.002Z,24.1
2018-08-03T13:31:24.442Z,25.9
2018-08-03T13:32:25.999Z,25.3
2018-08-03T13:33:27.415Z,25.6
2018-08-03T13:34:28.845Z,25.7
2018-08-03T13:35:30.368Z,25.0
2018-08-03T13:36:31.826Z,26.1
2018-08-03T13:37:33.236Z,24.8